createdAt,value
2022-08-02T00:00:35.168Z,4.82
2022-08-02T00:03:02.078Z,2.40
2022-08-02T00:05:29.155Z,4.72
2022-08-02T00:07:56.338Z,3.08
2022-08-02T00:10:23.362Z,4.32
2022-08-02T00:12:50.460Z,6.32
2022-08-02T00:15:17.581Z,1.98
2022-08-02T00:17:47.206Z,3.38
2022-08-02T00:20:15.497Z,1.98
2022-08-02T00:22:42.476Z,4.40
2022-08-02T00:25:09.458Z,4.68
2022-08-02T00:27:36.554Z,4.78
2022-08-02T00:30:04.371Z,2.28
2022-08-02T00:32:31.297Z,2.92
2022-08-02T00:34:58.202Z,3.13
2022-08-02T00:37:25.101Z,2.95
2022-08-02T00:39:52.066Z,3.10
2022-08-02T00:42:19.065Z,1.88
2022-08-02T00:44:46.094Z,1.83
2022-08-02T00:47:13.927Z,2.55
2022-08-02T00:49:46.891Z,4.15
2022-08-02T00:52:14.115Z,2.45
2022-08-02T00:54:41.315Z,2.05
2022-08-02T00:57:08.255Z,2.72
2022-08-02T00:59:35.244Z,2.22
2022-08-02T01:02:02.390Z,2.78
2022-08-02T01:04:31.237Z,3.80
2022-08-02T01:07:13.125Z,2.22
2022-08-02T01:09:44.611Z,4.93
2022-08-02T01:12:12.851Z,5.28
2022-08-02T01:14:46.592Z,2.25
2022-08-02T01:17:25.809Z,3.92
2022-08-02T01:20:30.559Z,4.03
2022-08-02T01:23:15.177Z,5.13
2022-08-02T01:25:45.252Z,2.67
2022-08-02T01:28:35.741Z,1.77
2022-08-02T01:31:21.452Z,3.60
2022-08-02T01:33:56.904Z,4.60
2022-08-02T01:36:25.040Z,5.65
2022-08-02T01:38:54.696Z,3.40
2022-08-02T01:41:26.727Z,6.55
2022-08-02T01:43:59.556Z,5.03
2022-08-02T01:46:28.419Z,3.80
2022-08-02T01:48:58.182Z,4.43
2022-08-02T01:51:47.052Z,4.50
2022-08-02T01:54:17.608Z,2.50
2022-08-02T01:56:45.759Z,5.23
2022-08-02T01:59:16.756Z,2.40
2022-08-02T02:01:46.121Z,4.03
2022-08-02T02:04:15.378Z,4.28
2022-08-02T02:06:44.920Z,2.67
2022-08-02T02:09:14.501Z,3.20
2022-08-02T02:12:06.427Z,3.92
2022-08-02T02:14:35.553Z,7.68
2022-08-02T02:17:03.419Z,4.17
2022-08-02T02:19:32.890Z,4.47
2022-08-02T02:22:00.142Z,6.77
2022-08-02T02:24:28.634Z,6.20
2022-08-02T02:26:55.696Z,5.35
2022-08-02T02:29:27.515Z,4.30
2022-08-02T02:31:56.016Z,3.67
2022-08-02T02:34:33.656Z,3.72
2022-08-02T02:37:04.801Z,5.40
2022-08-02T02:39:33.643Z,8.15
2022-08-02T02:42:03.791Z,4.88
2022-08-02T02:44:32.277Z,4.77
2022-08-02T02:47:00.860Z,5.70
2022-08-02T02:49:30.742Z,3.70
2022-08-02T02:51:58.781Z,3.67
2022-08-02T02:54:34.377Z,3.78
2022-08-02T02:57:03.294Z,4.10
2022-08-02T02:59:30.996Z,8.07
2022-08-02T03:01:58.898Z,7.23
2022-08-02T03:04:28.051Z,5.80
2022-08-02T03:07:15.358Z,3.83
2022-08-02T03:09:42.526Z,3.30
2022-08-02T03:12:10.521Z,8.43
2022-08-02T03:14:43.481Z,3.53
2022-08-02T03:17:10.944Z,3.90
2022-08-02T03:19:37.957Z,5.37
2022-08-02T03:22:04.907Z,4.17
2022-08-02T03:24:32.664Z,3.53
2022-08-02T03:26:59.894Z,4.57
2022-08-02T03:29:28.067Z,6.47
2022-08-02T03:31:56.976Z,3.60
2022-08-02T03:34:24.087Z,7.32
2022-08-02T03:36:55.032Z,4.93
2022-08-02T03:39:22.651Z,7.20
2022-08-02T03:41:50.232Z,9.30
2022-08-02T03:44:17.722Z,4.40
2022-08-02T03:46:45.400Z,10.32
2022-08-02T03:49:15.614Z,6.30
2022-08-02T03:51:42.746Z,5.68
2022-08-02T03:54:10.246Z,5.30
2022-08-02T03:56:37.660Z,7.60
2022-08-02T03:59:12.480Z,4.07
2022-08-02T04:01:39.908Z,4.90
2022-08-02T04:04:07.440Z,8.40
2022-08-02T04:06:34.597Z,6.43
2022-08-02T04:09:01.768Z,7.43
2022-08-02T04:11:31.637Z,4.38
2022-08-02T04:14:08.209Z,7.07
2022-08-02T04:16:52.553Z,5.00
2022-08-02T04:19:39.306Z,8.07
2022-08-02T04:22:11.835Z,7.53
2022-08-02T04:24:44.837Z,7.30
2022-08-02T04:27:49.025Z,4.35
2022-08-02T04:30:01.873Z,7.40
2022-08-02T04:32:29.325Z,5.78
2022-08-02T04:35:18.078Z,4.00
2022-08-02T04:38:09.648Z,5.47
2022-08-02T04:40:31.344Z,4.10
2022-08-02T04:42:58.277Z,3.65
2022-08-02T04:45:26.952Z,6.78
2022-08-02T04:48:01.978Z,6.65
2022-08-02T04:50:30.694Z,6.38
2022-08-02T04:52:57.807Z,7.55
2022-08-02T04:55:28.945Z,7.35
2022-08-02T04:57:58.186Z,4.93
2022-08-02T05:00:27.093Z,4.77
2022-08-02T05:02:55.814Z,7.20
2022-08-02T05:05:23.420Z,5.07
2022-08-02T05:07:50.279Z,9.07
2022-08-02T05:10:17.348Z,8.35
2022-08-02T05:12:44.528Z,6.32
2022-08-02T05:15:18.059Z,2.65
2022-08-02T05:17:47.771Z,5.18
2022-08-02T05:20:19.410Z,5.07
2022-08-02T05:22:47.024Z,5.10
2022-08-02T05:25:14.035Z,5.63
2022-08-02T05:27:42.254Z,3.47
2022-08-02T05:30:10.098Z,6.00
2022-08-02T05:32:44.205Z,3.35
2022-08-02T05:35:12.015Z,2.80
2022-08-02T05:37:39.224Z,3.47
2022-08-02T05:40:12.846Z,6.93
2022-08-02T05:42:40.635Z,3.65
2022-08-02T05:45:08.487Z,6.60
2022-08-02T05:47:36.079Z,6.10
2022-08-02T05:50:04.032Z,4.03
2022-08-02T05:52:49.330Z,7.20
2022-08-02T05:55:25.036Z,5.68
2022-08-02T05:58:15.521Z,6.65
2022-08-02T06:00:45.258Z,4.80
2022-08-02T06:03:37.034Z,3.58
2022-08-02T06:06:13.302Z,4.93
2022-08-02T06:08:48.603Z,4.57
2022-08-02T06:11:22.537Z,6.28
2022-08-02T06:13:49.941Z,4.13
2022-08-02T06:16:18.038Z,6.65
2022-08-02T06:19:00.715Z,8.43
2022-08-02T06:22:31.244Z,5.00
2022-08-02T06:24:19.457Z,5.88
2022-08-02T06:26:46.941Z,5.50
2022-08-02T06:29:14.957Z,5.25
2022-08-02T06:31:42.601Z,3.95
2022-08-02T06:34:12.248Z,5.63
2022-08-02T06:37:20.920Z,2.45
2022-08-02T06:39:56.964Z,4.63
2022-08-02T06:42:37.088Z,5.35
2022-08-02T06:45:04.809Z,8.30
2022-08-02T06:47:31.747Z,5.65
2022-08-02T06:49:58.864Z,4.32
2022-08-02T06:52:29.796Z,3.13
2022-08-02T06:54:59.323Z,7.28
2022-08-02T06:57:27.053Z,6.38
2022-08-02T06:59:54.722Z,4.25
2022-08-02T07:02:22.520Z,5.22
2022-08-02T07:04:49.500Z,6.65
2022-08-02T07:07:16.450Z,5.95
2022-08-02T07:09:56.815Z,6.50
2022-08-02T07:12:29.723Z,5.13
2022-08-02T07:14:58.068Z,6.05
2022-08-02T07:17:25.049Z,2.83
2022-08-02T07:19:52.208Z,6.28
2022-08-02T07:22:23.064Z,3.67
2022-08-02T07:24:50.879Z,5.65
2022-08-02T07:27:17.871Z,3.88
2022-08-02T07:29:46.984Z,3.63
2022-08-02T07:32:29.687Z,6.80
2022-08-02T07:34:58.033Z,3.00
2022-08-02T07:37:54.140Z,7.07
2022-08-02T07:40:20.030Z,6.50
2022-08-02T07:42:57.785Z,5.68
2022-08-02T07:45:27.815Z,2.70
2022-08-02T07:47:55.056Z,3.85
2022-08-02T07:50:22.133Z,6.15
2022-08-02T07:52:49.540Z,5.00
2022-08-02T07:55:24.082Z,4.80
2022-08-02T07:58:06.699Z,3.05
2022-08-02T08:00:38.009Z,2.22
2022-08-02T08:03:04.925Z,4.05
2022-08-02T08:05:31.821Z,5.55
2022-08-02T08:07:58.737Z,2.60
2022-08-02T08:10:25.719Z,6.35
2022-08-02T08:12:52.831Z,4.60
2022-08-02T08:15:19.916Z,1.63
2022-08-02T08:17:46.893Z,4.60
2022-08-02T08:20:15.867Z,5.13
2022-08-02T08:22:43.149Z,3.13
2022-08-02T08:25:10.452Z,8.48
2022-08-02T08:27:38.158Z,3.75
2022-08-02T08:30:05.465Z,6.80
2022-08-02T08:32:32.567Z,4.78
2022-08-02T08:34:59.661Z,3.50
2022-08-02T08:37:27.609Z,2.80
2022-08-02T08:39:58.402Z,2.80
2022-08-02T08:42:31.865Z,6.38
2022-08-02T08:44:59.965Z,3.72
2022-08-02T08:47:36.826Z,2.65
2022-08-02T08:50:17.929Z,3.10
2022-08-02T08:53:06.775Z,4.05
2022-08-02T08:55:36.037Z,3.25
2022-08-02T08:58:04.644Z,5.15
2022-08-02T09:00:33.745Z,4.68
2022-08-02T09:03:09.033Z,3.22
2022-08-02T09:05:41.808Z,4.75
2022-08-02T09:08:11.310Z,2.40
2022-08-02T09:10:46.349Z,5.25
2022-08-02T09:13:38.086Z,2.47
2022-08-02T09:16:13.052Z,3.80
2022-08-02T09:18:46.892Z,3.40
2022-08-02T09:21:16.450Z,5.32
2022-08-02T09:23:52.583Z,5.07
2022-08-02T09:26:22.143Z,3.72
2022-08-02T09:28:51.754Z,4.50
2022-08-02T09:31:23.413Z,1.88
2022-08-02T09:33:58.415Z,5.93
2022-08-02T09:36:26.717Z,4.90
2022-08-02T09:39:00.240Z,4.28
2022-08-02T09:41:29.285Z,2.08
2022-08-02T09:44:04.482Z,1.00
2022-08-02T09:46:40.935Z,4.88
2022-08-02T09:49:16.659Z,3.85
2022-08-02T09:51:46.947Z,3.28
2022-08-02T09:54:24.696Z,2.22
2022-08-02T09:56:54.522Z,5.78
2022-08-02T09:59:25.070Z,2.95
2022-08-02T10:02:01.898Z,3.05
2022-08-02T10:04:34.307Z,3.13
2022-08-02T10:07:19.429Z,1.45
2022-08-02T10:09:49.669Z,4.38
2022-08-02T10:12:17.431Z,3.88
2022-08-02T10:14:45.603Z,4.07
2022-08-02T10:17:12.738Z,4.18
2022-08-02T10:20:02.569Z,2.03
2022-08-02T10:22:27.479Z,2.35
2022-08-02T10:24:55.062Z,1.70
2022-08-02T10:27:25.200Z,1.60
2022-08-02T10:29:55.934Z,3.25
2022-08-02T10:32:29.560Z,4.10
2022-08-02T10:35:19.803Z,3.42
2022-08-02T10:38:01.480Z,2.95
2022-08-02T10:40:44.527Z,3.03
2022-08-02T10:43:12.324Z,1.55
2022-08-02T10:45:39.691Z,3.85
2022-08-02T10:48:12.242Z,2.97
2022-08-02T10:51:03.057Z,2.90
2022-08-02T10:53:31.056Z,0.93
2022-08-02T10:56:00.648Z,1.88
2022-08-02T10:58:31.684Z,3.75
2022-08-02T11:01:06.774Z,3.15
2022-08-02T11:03:40.253Z,3.05
2022-08-02T11:06:25.406Z,2.55
2022-08-02T11:09:33.851Z,1.38
2022-08-02T11:12:11.545Z,2.97
2022-08-02T11:14:40.856Z,2.75
2022-08-02T11:17:16.369Z,2.92
2022-08-02T11:20:12.064Z,1.85
2022-08-02T11:22:44.002Z,2.28
2022-08-02T11:25:23.506Z,1.88
2022-08-02T11:27:55.876Z,2.63
2022-08-02T11:30:26.857Z,2.30
2022-08-02T11:32:58.650Z,3.47
2022-08-02T11:35:40.104Z,4.32
2022-08-02T11:38:16.781Z,2.40
2022-08-02T11:40:45.168Z,3.30
2022-08-02T11:43:24.239Z,1.58
2022-08-02T11:45:52.535Z,2.15
2022-08-02T11:48:36.696Z,3.25
2022-08-02T11:51:13.035Z,5.18
2022-08-02T11:53:49.338Z,3.75
2022-08-02T11:56:24.892Z,2.55
2022-08-02T11:59:06.625Z,4.82
2022-08-02T12:01:44.982Z,5.10
2022-08-02T12:04:18.306Z,5.85
2022-08-02T12:06:54.655Z,2.03
2022-08-02T12:09:23.344Z,2.00
2022-08-02T12:11:51.272Z,4.40
2022-08-02T12:14:18.493Z,4.38
2022-08-02T12:17:04.181Z,1.35
2022-08-02T12:19:31.254Z,2.45
2022-08-02T12:22:24.280Z,1.27
2022-08-02T12:24:56.439Z,0.88
2022-08-02T12:27:38.558Z,1.88
2022-08-02T12:30:11.613Z,1.20
2022-08-02T12:32:41.877Z,2.22
2022-08-02T12:35:14.931Z,2.03
2022-08-02T12:37:54.046Z,1.75
2022-08-02T12:40:25.436Z,2.22
2022-08-02T12:43:05.387Z,3.17
2022-08-02T12:45:54.790Z,3.33
2022-08-02T12:48:37.443Z,2.97
2022-08-02T12:51:23.164Z,2.05
2022-08-02T12:53:58.952Z,2.67
2022-08-02T12:56:31.947Z,5.38
2022-08-02T12:58:59.570Z,3.17
2022-08-02T13:01:28.318Z,2.10
2022-08-02T13:04:09.992Z,1.98
2022-08-02T13:06:43.978Z,3.17
2022-08-02T13:09:15.014Z,2.05
2022-08-02T13:11:42.959Z,3.10
2022-08-02T13:14:11.727Z,3.85
2022-08-02T13:16:38.818Z,2.13
2022-08-02T13:19:05.806Z,2.00
2022-08-02T13:21:39.982Z,4.25
2022-08-02T13:24:32.642Z,1.88
2022-08-02T13:26:55.905Z,3.33
2022-08-02T13:29:23.064Z,5.18
2022-08-02T13:31:49.991Z,5.13
2022-08-02T13:34:16.951Z,2.80
2022-08-02T13:36:43.826Z,3.72
2022-08-02T13:39:12.035Z,2.03
2022-08-02T13:41:39.080Z,4.88
2022-08-02T13:44:10.517Z,1.33
2022-08-02T13:46:45.582Z,5.07
2022-08-02T13:49:19.249Z,2.83
2022-08-02T13:51:50.240Z,1.50
2022-08-02T13:54:17.889Z,3.03
2022-08-02T13:56:45.097Z,2.05
2022-08-02T13:59:23.643Z,0.75
2022-08-02T14:01:59.652Z,2.88
2022-08-02T14:04:27.198Z,2.08
2022-08-02T14:06:54.531Z,2.13
2022-08-02T14:09:25.275Z,1.60
2022-08-02T14:11:52.423Z,1.55
2022-08-02T14:14:19.408Z,5.07
2022-08-02T14:16:46.422Z,0.50
2022-08-02T14:19:16.549Z,3.33
2022-08-02T14:21:46.382Z,2.58
2022-08-02T14:24:15.840Z,0.50
2022-08-02T14:26:43.134Z,3.58
2022-08-02T14:29:10.513Z,3.20
2022-08-02T14:31:43.313Z,3.28
2022-08-02T14:34:11.546Z,12.90
2022-08-02T14:36:39.365Z,11.82
2022-08-02T14:39:06.574Z,4.68
2022-08-02T14:41:59.962Z,7.75
2022-08-02T14:44:23.550Z,3.05
2022-08-02T14:46:51.774Z,4.85
2022-08-02T14:49:24.466Z,3.38
2022-08-02T14:51:56.820Z,6.22
2022-08-02T14:54:28.152Z,6.20
2022-08-02T14:57:03.137Z,3.38
2022-08-02T14:59:30.953Z,2.53
2022-08-02T15:01:58.706Z,7.05
2022-08-02T15:04:26.410Z,2.85
2022-08-02T15:06:54.096Z,2.90
2022-08-02T15:09:21.716Z,3.83
2022-08-02T15:11:49.483Z,4.63
2022-08-02T15:14:25.922Z,9.27
2022-08-02T15:16:57.637Z,3.88
2022-08-02T15:19:56.998Z,3.47
2022-08-02T15:22:15.954Z,1.83
2022-08-02T15:24:44.936Z,3.83
2022-08-02T15:27:14.383Z,6.93
2022-08-02T15:29:43.427Z,3.40
2022-08-02T15:32:10.871Z,5.18
2022-08-02T15:34:38.573Z,1.40
2022-08-02T15:37:05.690Z,2.60
2022-08-02T15:39:32.714Z,1.77
2022-08-02T15:41:59.867Z,3.83
2022-08-02T15:44:26.874Z,1.65
2022-08-02T15:46:54.483Z,4.65
2022-08-02T15:49:24.010Z,2.17
2022-08-02T15:51:55.046Z,2.15
2022-08-02T15:54:22.037Z,2.42
2022-08-02T15:56:49.511Z,4.03
2022-08-02T15:59:16.494Z,3.22
2022-08-02T16:01:47.591Z,3.65
2022-08-02T16:04:15.853Z,3.70
2022-08-02T16:06:46.020Z,1.85
2022-08-02T16:09:13.023Z,3.47
2022-08-02T16:11:40.132Z,2.72
2022-08-02T16:14:07.632Z,4.40
2022-08-02T16:16:36.122Z,5.05
2022-08-02T16:19:46.972Z,4.15
2022-08-02T16:21:53.558Z,3.03
2022-08-02T16:24:21.547Z,2.88
2022-08-02T16:26:48.960Z,4.75
2022-08-02T16:29:19.164Z,3.40
2022-08-02T16:31:50.157Z,2.25
2022-08-02T16:34:17.980Z,3.78
2022-08-02T16:36:46.149Z,4.22
2022-08-02T16:39:13.204Z,3.42
2022-08-02T16:41:50.999Z,4.35
2022-08-02T16:44:29.412Z,3.17
2022-08-02T16:47:01.038Z,4.60
2022-08-02T16:50:04.105Z,5.45
2022-08-02T16:52:27.181Z,3.80
2022-08-02T16:54:54.108Z,5.07
2022-08-02T16:57:21.231Z,3.92
2022-08-02T16:59:58.242Z,4.82
2022-08-02T17:02:26.552Z,2.85
2022-08-02T17:05:14.699Z,3.90
2022-08-02T17:08:07.107Z,3.90
2022-08-02T17:10:30.556Z,5.13
2022-08-02T17:12:58.601Z,4.70
2022-08-02T17:16:17.278Z,6.45
2022-08-02T17:18:27.150Z,5.22
2022-08-02T17:20:55.524Z,4.00
2022-08-02T17:23:22.552Z,6.22
2022-08-02T17:26:09.486Z,5.40
2022-08-02T17:28:41.640Z,2.33
2022-08-02T17:31:29.481Z,2.10
2022-08-02T17:33:57.229Z,2.53
2022-08-02T17:36:25.934Z,5.35
2022-08-02T17:38:52.973Z,6.85
2022-08-02T17:41:19.986Z,4.97
2022-08-02T17:44:05.424Z,6.20
2022-08-02T17:46:32.824Z,4.30
2022-08-02T17:49:20.838Z,3.63
2022-08-02T17:52:49.488Z,7.53
2022-08-02T17:54:35.544Z,5.45
2022-08-02T17:57:02.576Z,5.63
2022-08-02T17:59:41.729Z,2.95
2022-08-02T18:02:11.265Z,7.97
2022-08-02T18:04:38.439Z,6.05
2022-08-02T18:07:09.825Z,6.55
2022-08-02T18:09:39.564Z,4.88
2022-08-02T18:12:13.984Z,2.97
2022-08-02T18:14:49.006Z,3.67
2022-08-02T18:17:16.795Z,6.75
2022-08-02T18:19:57.424Z,4.40
2022-08-02T18:22:30.587Z,5.13
2022-08-02T18:24:57.589Z,2.75
2022-08-02T18:27:24.684Z,4.05
2022-08-02T18:30:00.068Z,3.08
2022-08-02T18:33:54.579Z,2.85
2022-08-02T18:35:19.491Z,8.25
2022-08-02T18:37:52.142Z,6.22
2022-08-02T18:40:24.552Z,3.55
2022-08-02T18:42:51.455Z,5.00
2022-08-02T18:45:20.030Z,7.00
2022-08-02T18:47:50.927Z,4.38
2022-08-02T18:50:19.897Z,5.32
2022-08-02T18:52:48.155Z,2.80
2022-08-02T18:55:17.133Z,2.25
2022-08-02T18:58:17.178Z,5.95
2022-08-02T19:00:32.182Z,7.13
2022-08-02T19:02:59.841Z,4.95
2022-08-02T19:05:52.072Z,6.20
2022-08-02T19:08:14.746Z,3.78
2022-08-02T19:10:49.337Z,7.03
2022-08-02T19:13:18.669Z,5.07
2022-08-02T19:15:45.837Z,8.20
2022-08-02T19:18:14.795Z,7.13
2022-08-02T19:20:48.157Z,4.82
2022-08-02T19:23:17.021Z,7.82
2022-08-02T19:25:50.388Z,3.97
2022-08-02T19:28:25.852Z,4.45
2022-08-02T19:30:55.278Z,5.50
2022-08-02T19:33:54.692Z,6.53
2022-08-02T19:36:09.832Z,4.40
2022-08-02T19:38:43.836Z,3.95
2022-08-02T19:41:13.284Z,5.50
2022-08-02T19:44:26.590Z,7.32
2022-08-02T19:46:27.137Z,6.10
2022-08-02T19:48:56.603Z,8.48
2022-08-02T19:51:49.745Z,6.30
2022-08-02T19:54:11.062Z,6.47
2022-08-02T19:56:40.507Z,5.63
2022-08-02T19:59:13.391Z,5.55
2022-08-02T20:01:44.946Z,5.15
2022-08-02T20:04:15.687Z,5.97
2022-08-02T20:06:50.891Z,14.82
2022-08-02T20:09:21.405Z,16.02
2022-08-02T20:11:54.347Z,11.63
2022-08-02T20:14:27.681Z,10.65
2022-08-02T20:16:58.297Z,7.28
2022-08-02T20:19:25.466Z,6.22
2022-08-02T20:21:59.635Z,8.20
2022-08-02T20:24:28.378Z,8.38
2022-08-02T20:26:58.852Z,9.60
2022-08-02T20:29:44.497Z,9.10
2022-08-02T20:32:21.370Z,7.90
2022-08-02T20:34:50.212Z,5.55
2022-08-02T20:38:00.721Z,7.57
2022-08-02T20:40:05.978Z,5.80
2022-08-02T20:42:34.451Z,6.03
2022-08-02T20:45:02.030Z,6.55
2022-08-02T20:47:39.286Z,10.15
2022-08-02T20:50:30.480Z,5.57
2022-08-02T20:53:03.174Z,7.35
2022-08-02T20:55:31.812Z,6.63
2022-08-02T20:58:03.075Z,5.78
2022-08-02T21:00:31.672Z,7.22
2022-08-02T21:03:00.001Z,8.50
2022-08-02T21:05:43.897Z,8.27
2022-08-02T21:08:15.136Z,8.38
2022-08-02T21:10:43.941Z,8.50
2022-08-02T21:13:23.005Z,7.35
2022-08-02T21:15:52.058Z,8.80
2022-08-02T21:18:23.888Z,7.00
2022-08-02T21:21:06.629Z,9.13
2022-08-02T21:23:36.688Z,6.75
2022-08-02T21:26:06.096Z,5.45
2022-08-02T21:28:43.336Z,8.88
2022-08-02T21:31:13.500Z,8.48
2022-08-02T21:33:56.801Z,6.10
2022-08-02T21:36:31.404Z,7.90
2022-08-02T21:39:08.817Z,6.72
2022-08-02T21:41:46.358Z,5.28
2022-08-02T21:44:19.624Z,6.15
2022-08-02T21:46:49.822Z,6.70
2022-08-02T21:49:27.126Z,7.93
2022-08-02T21:52:08.458Z,7.38
2022-08-02T21:54:40.469Z,5.43
2022-08-02T21:57:07.826Z,8.27
2022-08-02T21:59:48.716Z,9.40
2022-08-02T22:02:22.235Z,6.53
2022-08-02T22:04:58.368Z,11.02
2022-08-02T22:07:25.472Z,10.48
2022-08-02T22:09:53.551Z,6.28
2022-08-02T22:12:21.928Z,5.50
2022-08-02T22:14:55.692Z,8.50
2022-08-02T22:17:51.317Z,3.95
2022-08-02T22:20:15.463Z,4.88
2022-08-02T22:22:45.503Z,5.72
2022-08-02T22:25:26.827Z,6.03
2022-08-02T22:28:37.848Z,5.68
2022-08-02T22:30:50.548Z,6.88
2022-08-02T22:33:42.009Z,7.97
2022-08-02T22:36:13.622Z,9.43
2022-08-02T22:38:46.490Z,11.73
2022-08-02T22:41:14.797Z,10.80
2022-08-02T22:43:42.569Z,18.35
2022-08-02T22:46:15.470Z,26.70
2022-08-02T22:48:44.211Z,21.50
2022-08-02T22:51:12.582Z,21.13
2022-08-02T22:53:40.859Z,22.42
2022-08-02T22:56:08.428Z,20.48
2022-08-02T22:59:06.417Z,17.95
2022-08-02T23:01:22.572Z,21.90
2022-08-02T23:03:49.737Z,18.15
2022-08-02T23:06:19.347Z,23.85
2022-08-02T23:08:50.004Z,15.80
2022-08-02T23:11:17.098Z,14.38
2022-08-02T23:13:44.104Z,19.15
2022-08-02T23:16:29.521Z,20.45
2022-08-02T23:19:15.140Z,20.02
2022-08-02T23:21:46.144Z,18.85
2022-08-02T23:24:29.139Z,24.70
2022-08-02T23:26:57.302Z,22.08
2022-08-02T23:29:24.252Z,18.15
2022-08-02T23:31:51.160Z,15.25
2022-08-02T23:34:19.853Z,20.40
2022-08-02T23:36:46.749Z,13.82
2022-08-02T23:39:13.918Z,18.83
2022-08-02T23:41:42.440Z,11.32
2022-08-02T23:44:16.342Z,10.32
2022-08-02T23:46:47.271Z,13.50
2022-08-02T23:49:15.948Z,11.80
2022-08-02T23:51:43.425Z,18.73
2022-08-02T23:54:11.663Z,21.15
2022-08-02T23:56:39.250Z,14.98
2022-08-02T23:59:07.815Z,15.23
